sensor_id;sensor_type;location;lat;lon;timestamp;temperature;humidity
57892;DHT22;43708;48.828;9.166;2023-03-01T00:02:00;21.20;57.60
57892;DHT22;43708;48.828;9.166;2023-03-01T00:04:25;21.10;57.30
57892;DHT22;43708;48.828;9.166;2023-03-01T00:06:51;21.10;57.20
57892;DHT22;43708;48.828;9.166;2023-03-01T00:09:16;21.00;57.10
57892;DHT22;43708;48.828;9.166;2023-03-01T00:11:42;21.00;57.10
57892;DHT22;43708;48.828;9.166;2023-03-01T00:14:08;21.00;57.10
57892;DHT22;43708;48.828;9.166;2023-03-01T00:16:39;20.90;57.10
57892;DHT22;43708;48.828;9.166;2023-03-01T00:19:06;20.90;57.10
57892;DHT22;43708;48.828;9.166;2023-03-01T00:21:32;20.80;57.10
57892;DHT22;43708;48.828;9.166;2023-03-01T00:23:59;20.80;57.70
57892;DHT22;43708;48.828;9.166;2023-03-01T00:26:26;20.80;57.10
57892;DHT22;43708;48.828;9.166;2023-03-01T00:28:52;20.70;57.10
57892;DHT22;43708;48.828;9.166;2023-03-01T00:31:20;20.80;57.10
57892;DHT22;43708;48.828;9.166;2023-03-01T00:33:48;20.70;57.10
57892;DHT22;43708;48.828;9.166;2023-03-01T00:36:14;20.70;57.10
57892;DHT22;43708;48.828;9.166;2023-03-01T00:38:43;20.70;57.10
57892;DHT22;43708;48.828;9.166;2023-03-01T00:41:11;20.60;57.10
57892;DHT22;43708;48.828;9.166;2023-03-01T00:43:37;20.60;57.10
57892;DHT22;43708;48.828;9.166;2023-03-01T00:46:05;20.60;57.10
57892;DHT22;43708;48.828;9.166;2023-03-01T00:48:31;20.50;57.10
57892;DHT22;43708;48.828;9.166;2023-03-01T00:53:32;20.50;57.20
57892;DHT22;43708;48.828;9.166;2023-03-01T00:55:58;20.50;57.20
57892;DHT22;43708;48.828;9.166;2023-03-01T00:58:24;20.40;57.10
57892;DHT22;43708;48.828;9.166;2023-03-01T01:00:50;20.40;57.10
57892;DHT22;43708;48.828;9.166;2023-03-01T01:03:15;20.40;57.10
57892;DHT22;43708;48.828;9.166;2023-03-01T01:05:41;20.40;57.10
57892;DHT22;43708;48.828;9.166;2023-03-01T01:08:06;20.40;57.10
57892;DHT22;43708;48.828;9.166;2023-03-01T01:10:34;20.30;57.10
57892;DHT22;43708;48.828;9.166;2023-03-01T01:12:59;20.30;57.10
57892;DHT22;43708;48.828;9.166;2023-03-01T01:15:25;20.30;57.10
57892;DHT22;43708;48.828;9.166;2023-03-01T01:17:51;20.30;57.10
57892;DHT22;43708;48.828;9.166;2023-03-01T01:20:17;20.30;57.10
57892;DHT22;43708;48.828;9.166;2023-03-01T01:22:43;20.30;57.10
57892;DHT22;43708;48.828;9.166;2023-03-01T01:25:09;20.20;57.00
57892;DHT22;43708;48.828;9.166;2023-03-01T01:27:35;20.20;57.60
57892;DHT22;43708;48.828;9.166;2023-03-01T01:30:01;20.20;57.10
57892;DHT22;43708;48.828;9.166;2023-03-01T01:32:27;20.20;57.10
57892;DHT22;43708;48.828;9.166;2023-03-01T01:34:52;20.10;57.10
57892;DHT22;43708;48.828;9.166;2023-03-01T01:37:18;20.10;57.10
57892;DHT22;43708;48.828;9.166;2023-03-01T01:39:44;20.10;57.10
57892;DHT22;43708;48.828;9.166;2023-03-01T01:42:15;20.10;57.10
57892;DHT22;43708;48.828;9.166;2023-03-01T01:44:42;20.10;57.10
57892;DHT22;43708;48.828;9.166;2023-03-01T01:47:15;20.00;57.10
57892;DHT22;43708;48.828;9.166;2023-03-01T01:49:46;20.00;57.10
57892;DHT22;43708;48.828;9.166;2023-03-01T01:52:40;20.00;57.10
57892;DHT22;43708;48.828;9.166;2023-03-01T01:55:11;20.00;57.10
57892;DHT22;43708;48.828;9.166;2023-03-01T01:57:45;20.00;57.10
57892;DHT22;43708;48.828;9.166;2023-03-01T02:00:24;20.00;57.10
57892;DHT22;43708;48.828;9.166;2023-03-01T02:02:54;19.90;57.10
57892;DHT22;43708;48.828;9.166;2023-03-01T02:08:11;19.90;57.10
57892;DHT22;43708;48.828;9.166;2023-03-01T02:10:38;19.80;57.10
57892;DHT22;43708;48.828;9.166;2023-03-01T02:13:04;19.90;57.10
57892;DHT22;43708;48.828;9.166;2023-03-01T02:15:34;19.90;57.10
57892;DHT22;43708;48.828;9.166;2023-03-01T02:18:01;19.90;57.10
57892;DHT22;43708;48.828;9.166;2023-03-01T02:23:18;19.90;57.10
57892;DHT22;43708;48.828;9.166;2023-03-01T02:28:30;19.80;57.10
57892;DHT22;43708;48.828;9.166;2023-03-01T02:30:56;19.80;57.10
57892;DHT22;43708;48.828;9.166;2023-03-01T02:33:41;19.80;57.10
57892;DHT22;43708;48.828;9.166;2023-03-01T02:36:19;19.80;57.10
57892;DHT22;43708;48.828;9.166;2023-03-01T02:38:45;19.80;57.20
57892;DHT22;43708;48.828;9.166;2023-03-01T02:41:15;19.80;57.20
57892;DHT22;43708;48.828;9.166;2023-03-01T02:43:41;19.80;57.20
57892;DHT22;43708;48.828;9.166;2023-03-01T02:46:16;19.80;57.20
57892;DHT22;43708;48.828;9.166;2023-03-01T02:48:57;19.70;57.20
57892;DHT22;43708;48.828;9.166;2023-03-01T02:51:45;19.80;57.30
57892;DHT22;43708;48.828;9.166;2023-03-01T02:56:51;19.70;57.30
57892;DHT22;43708;48.828;9.166;2023-03-01T02:59:20;19.70;57.30
57892;DHT22;43708;48.828;9.166;2023-03-01T03:01:46;19.70;57.30
57892;DHT22;43708;48.828;9.166;2023-03-01T03:04:15;19.70;57.40
57892;DHT22;43708;48.828;9.166;2023-03-01T03:06:44;19.70;57.40
57892;DHT22;43708;48.828;9.166;2023-03-01T03:09:10;19.60;57.30
57892;DHT22;43708;48.828;9.166;2023-03-01T03:11:36;19.60;57.30
57892;DHT22;43708;48.828;9.166;2023-03-01T03:14:02;19.60;57.40
57892;DHT22;43708;48.828;9.166;2023-03-01T03:16:28;19.60;57.40
57892;DHT22;43708;48.828;9.166;2023-03-01T03:18:55;19.60;57.40
57892;DHT22;43708;48.828;9.166;2023-03-01T03:21:33;19.60;57.60
57892;DHT22;43708;48.828;9.166;2023-03-01T03:24:00;19.60;57.40
57892;DHT22;43708;48.828;9.166;2023-03-01T03:26:26;19.60;57.40
57892;DHT22;43708;48.828;9.166;2023-03-01T03:28:51;19.60;57.50
57892;DHT22;43708;48.828;9.166;2023-03-01T03:31:17;19.60;57.50
57892;DHT22;43708;48.828;9.166;2023-03-01T03:33:43;19.50;57.50
57892;DHT22;43708;48.828;9.166;2023-03-01T03:36:09;19.50;57.50
57892;DHT22;43708;48.828;9.166;2023-03-01T03:38:39;19.50;57.50
57892;DHT22;43708;48.828;9.166;2023-03-01T03:41:06;19.50;57.50
57892;DHT22;43708;48.828;9.166;2023-03-01T03:43:34;19.50;57.50
57892;DHT22;43708;48.828;9.166;2023-03-01T03:46:01;19.50;57.50
57892;DHT22;43708;48.828;9.166;2023-03-01T03:48:32;19.50;57.50
57892;DHT22;43708;48.828;9.166;2023-03-01T03:50:58;19.50;57.60
57892;DHT22;43708;48.828;9.166;2023-03-01T03:53:26;19.50;57.60
57892;DHT22;43708;48.828;9.166;2023-03-01T03:55:53;19.40;57.50
57892;DHT22;43708;48.828;9.166;2023-03-01T03:58:20;19.40;57.50
57892;DHT22;43708;48.828;9.166;2023-03-01T04:00:50;19.40;57.60
57892;DHT22;43708;48.828;9.166;2023-03-01T04:03:16;19.40;57.60
57892;DHT22;43708;48.828;9.166;2023-03-01T04:05:44;19.40;57.60
57892;DHT22;43708;48.828;9.166;2023-03-01T04:08:09;19.40;57.60
57892;DHT22;43708;48.828;9.166;2023-03-01T04:10:41;19.40;57.60
57892;DHT22;43708;48.828;9.166;2023-03-01T04:13:10;19.40;57.60
57892;DHT22;43708;48.828;9.166;2023-03-01T04:15:36;19.40;57.70
57892;DHT22;43708;48.828;9.166;2023-03-01T04:18:02;19.40;57.70
57892;DHT22;43708;48.828;9.166;2023-03-01T04:20:31;19.40;57.70
57892;DHT22;43708;48.828;9.166;2023-03-01T04:23:00;19.30;57.70
57892;DHT22;43708;48.828;9.166;2023-03-01T04:25:57;19.30;57.70
57892;DHT22;43708;48.828;9.166;2023-03-01T04:28:26;19.30;57.70
57892;DHT22;43708;48.828;9.166;2023-03-01T04:30:53;19.30;57.70
57892;DHT22;43708;48.828;9.166;2023-03-01T04:33:19;19.30;57.80
57892;DHT22;43708;48.828;9.166;2023-03-01T04:35:45;19.30;57.80
57892;DHT22;43708;48.828;9.166;2023-03-01T04:38:15;19.30;57.80
57892;DHT22;43708;48.828;9.166;2023-03-01T04:40:40;19.30;57.80
57892;DHT22;43708;48.828;9.166;2023-03-01T04:43:09;19.20;57.80
57892;DHT22;43708;48.828;9.166;2023-03-01T04:45:35;19.20;57.80
57892;DHT22;43708;48.828;9.166;2023-03-01T04:48:02;19.20;57.80
57892;DHT22;43708;48.828;9.166;2023-03-01T04:50:28;19.30;57.80
57892;DHT22;43708;48.828;9.166;2023-03-01T04:52:54;19.30;57.70
57892;DHT22;43708;48.828;9.166;2023-03-01T04:55:27;19.40;57.70
57892;DHT22;43708;48.828;9.166;2023-03-01T04:57:53;19.50;57.60
57892;DHT22;43708;48.828;9.166;2023-03-01T05:00:19;19.60;57.50
57892;DHT22;43708;48.828;9.166;2023-03-01T05:03:00;19.70;57.40
57892;DHT22;43708;48.828;9.166;2023-03-01T05:05:37;19.80;57.20
57892;DHT22;43708;48.828;9.166;2023-03-01T05:08:07;19.90;57.00
57892;DHT22;43708;48.828;9.166;2023-03-01T05:10:34;20.00;56.90
57892;DHT22;43708;48.828;9.166;2023-03-01T05:13:02;20.10;56.80
57892;DHT22;43708;48.828;9.166;2023-03-01T05:15:29;20.20;56.60
57892;DHT22;43708;48.828;9.166;2023-03-01T05:17:57;20.20;56.60
57892;DHT22;43708;48.828;9.166;2023-03-01T05:20:27;19.90;55.40
57892;DHT22;43708;48.828;9.166;2023-03-01T05:22:56;18.60;55.70
57892;DHT22;43708;48.828;9.166;2023-03-01T05:25:22;18.30;56.60
57892;DHT22;43708;48.828;9.166;2023-03-01T05:27:48;18.50;56.70
57892;DHT22;43708;48.828;9.166;2023-03-01T05:30:14;18.80;56.20
57892;DHT22;43708;48.828;9.166;2023-03-01T05:32:42;19.20;55.60
57892;DHT22;43708;48.828;9.166;2023-03-01T05:35:12;19.40;55.10
57892;DHT22;43708;48.828;9.166;2023-03-01T05:37:47;19.70;54.80
57892;DHT22;43708;48.828;9.166;2023-03-01T05:40:19;19.90;54.50
57892;DHT22;43708;48.828;9.166;2023-03-01T05:42:49;20.10;54.30
57892;DHT22;43708;48.828;9.166;2023-03-01T05:45:17;20.30;54.00
57892;DHT22;43708;48.828;9.166;2023-03-01T05:47:45;20.40;53.80
57892;DHT22;43708;48.828;9.166;2023-03-01T05:52:36;20.50;53.60
57892;DHT22;43708;48.828;9.166;2023-03-01T05:55:02;20.60;53.60
57892;DHT22;43708;48.828;9.166;2023-03-01T05:57:28;20.60;53.40
57892;DHT22;43708;48.828;9.166;2023-03-01T05:59:54;20.60;53.40
57892;DHT22;43708;48.828;9.166;2023-03-01T06:02:20;20.60;53.40
57892;DHT22;43708;48.828;9.166;2023-03-01T06:04:46;20.60;53.40
57892;DHT22;43708;48.828;9.166;2023-03-01T06:07:12;20.60;53.60
57892;DHT22;43708;48.828;9.166;2023-03-01T06:09:38;20.40;53.60
57892;DHT22;43708;48.828;9.166;2023-03-01T06:12:03;20.30;53.60
57892;DHT22;43708;48.828;9.166;2023-03-01T06:14:30;20.20;53.70
57892;DHT22;43708;48.828;9.166;2023-03-01T06:16:57;20.20;53.70
57892;DHT22;43708;48.828;9.166;2023-03-01T06:19:23;20.20;53.60
57892;DHT22;43708;48.828;9.166;2023-03-01T06:21:49;20.10;53.60
57892;DHT22;43708;48.828;9.166;2023-03-01T06:24:14;20.10;53.60
57892;DHT22;43708;48.828;9.166;2023-03-01T06:26:40;20.10;53.60
57892;DHT22;43708;48.828;9.166;2023-03-01T06:29:05;20.10;53.60
57892;DHT22;43708;48.828;9.166;2023-03-01T06:31:31;20.10;53.60
57892;DHT22;43708;48.828;9.166;2023-03-01T06:33:56;20.00;53.60
57892;DHT22;43708;48.828;9.166;2023-03-01T06:36:22;20.00;53.60
57892;DHT22;43708;48.828;9.166;2023-03-01T06:38:48;19.90;53.60
57892;DHT22;43708;48.828;9.166;2023-03-01T06:41:13;19.90;53.70
57892;DHT22;43708;48.828;9.166;2023-03-01T06:43:39;19.80;53.60
57892;DHT22;43708;48.828;9.166;2023-03-01T06:46:06;19.80;53.70
57892;DHT22;43708;48.828;9.166;2023-03-01T06:48:33;19.80;53.70
57892;DHT22;43708;48.828;9.166;2023-03-01T06:51:00;19.80;53.70
57892;DHT22;43708;48.828;9.166;2023-03-01T06:53:27;19.80;53.70
57892;DHT22;43708;48.828;9.166;2023-03-01T06:55:56;19.90;53.70
57892;DHT22;43708;48.828;9.166;2023-03-01T06:58:22;19.90;53.70
57892;DHT22;43708;48.828;9.166;2023-03-01T07:00:48;19.90;53.60
57892;DHT22;43708;48.828;9.166;2023-03-01T07:03:14;19.90;53.60
57892;DHT22;43708;48.828;9.166;2023-03-01T07:05:39;19.90;53.60
57892;DHT22;43708;48.828;9.166;2023-03-01T07:08:05;19.90;53.40
57892;DHT22;43708;48.828;9.166;2023-03-01T07:10:30;19.90;53.40
57892;DHT22;43708;48.828;9.166;2023-03-01T07:12:57;19.90;53.40
57892;DHT22;43708;48.828;9.166;2023-03-01T07:15:23;20.00;53.40
57892;DHT22;43708;48.828;9.166;2023-03-01T07:17:48;20.10;53.50
57892;DHT22;43708;48.828;9.166;2023-03-01T07:20:16;20.10;53.40
57892;DHT22;43708;48.828;9.166;2023-03-01T07:22:42;20.10;53.40
57892;DHT22;43708;48.828;9.166;2023-03-01T07:25:09;20.10;53.40
57892;DHT22;43708;48.828;9.166;2023-03-01T07:27:34;20.10;53.40
57892;DHT22;43708;48.828;9.166;2023-03-01T07:30:00;20.10;53.40
57892;DHT22;43708;48.828;9.166;2023-03-01T07:32:26;20.20;53.40
57892;DHT22;43708;48.828;9.166;2023-03-01T07:34:51;20.20;53.40
57892;DHT22;43708;48.828;9.166;2023-03-01T07:37:17;20.20;53.40
57892;DHT22;43708;48.828;9.166;2023-03-01T07:39:43;20.20;53.40
57892;DHT22;43708;48.828;9.166;2023-03-01T07:42:08;20.20;53.50
57892;DHT22;43708;48.828;9.166;2023-03-01T07:44:34;20.20;53.60
57892;DHT22;43708;48.828;9.166;2023-03-01T07:47:00;20.20;53.60
57892;DHT22;43708;48.828;9.166;2023-03-01T07:49:25;20.20;53.60
57892;DHT22;43708;48.828;9.166;2023-03-01T07:51:54;20.20;53.70
57892;DHT22;43708;48.828;9.166;2023-03-01T07:54:20;20.20;53.70
57892;DHT22;43708;48.828;9.166;2023-03-01T07:56:46;20.10;53.70
57892;DHT22;43708;48.828;9.166;2023-03-01T07:59:11;20.10;53.60
57892;DHT22;43708;48.828;9.166;2023-03-01T08:01:37;20.10;53.80
57892;DHT22;43708;48.828;9.166;2023-03-01T08:04:02;20.10;53.80
57892;DHT22;43708;48.828;9.166;2023-03-01T08:06:30;20.10;53.90
57892;DHT22;43708;48.828;9.166;2023-03-01T08:08:56;20.00;53.90
57892;DHT22;43708;48.828;9.166;2023-03-01T08:11:21;20.00;53.90
57892;DHT22;43708;48.828;9.166;2023-03-01T08:13:47;20.00;53.90
57892;DHT22;43708;48.828;9.166;2023-03-01T08:16:15;20.00;54.00
57892;DHT22;43708;48.828;9.166;2023-03-01T08:18:41;20.00;54.00
57892;DHT22;43708;48.828;9.166;2023-03-01T08:21:17;19.90;54.00
57892;DHT22;43708;48.828;9.166;2023-03-01T08:23:43;20.00;54.10
57892;DHT22;43708;48.828;9.166;2023-03-01T08:26:15;19.90;54.00
57892;DHT22;43708;48.828;9.166;2023-03-01T08:28:42;19.90;54.10
57892;DHT22;43708;48.828;9.166;2023-03-01T08:31:37;19.90;54.00
57892;DHT22;43708;48.828;9.166;2023-03-01T08:34:06;20.00;54.10
57892;DHT22;43708;48.828;9.166;2023-03-01T08:36:38;20.00;54.00
57892;DHT22;43708;48.828;9.166;2023-03-01T08:39:05;20.00;54.00
57892;DHT22;43708;48.828;9.166;2023-03-01T08:41:31;20.00;54.00
57892;DHT22;43708;48.828;9.166;2023-03-01T08:43:56;20.00;54.00
57892;DHT22;43708;48.828;9.166;2023-03-01T08:46:29;20.00;54.00
57892;DHT22;43708;48.828;9.166;2023-03-01T08:48:55;20.10;54.30
57892;DHT22;43708;48.828;9.166;2023-03-01T08:51:22;20.10;53.90
57892;DHT22;43708;48.828;9.166;2023-03-01T08:53:48;20.20;54.00
57892;DHT22;43708;48.828;9.166;2023-03-01T08:56:15;20.10;53.90
57892;DHT22;43708;48.828;9.166;2023-03-01T08:58:44;20.20;54.00
57892;DHT22;43708;48.828;9.166;2023-03-01T09:01:13;20.20;54.00
57892;DHT22;43708;48.828;9.166;2023-03-01T09:03:40;20.20;54.00
57892;DHT22;43708;48.828;9.166;2023-03-01T09:06:06;20.20;54.00
57892;DHT22;43708;48.828;9.166;2023-03-01T09:08:36;20.20;54.00
57892;DHT22;43708;48.828;9.166;2023-03-01T09:11:04;20.20;54.10
57892;DHT22;43708;48.828;9.166;2023-03-01T09:13:30;20.20;54.10
57892;DHT22;43708;48.828;9.166;2023-03-01T09:16:01;20.20;54.10
57892;DHT22;43708;48.828;9.166;2023-03-01T09:18:27;20.30;54.20
57892;DHT22;43708;48.828;9.166;2023-03-01T09:20:53;20.30;54.20
57892;DHT22;43708;48.828;9.166;2023-03-01T09:23:21;20.20;54.20
57892;DHT22;43708;48.828;9.166;2023-03-01T09:25:47;20.30;54.20
57892;DHT22;43708;48.828;9.166;2023-03-01T09:28:13;20.20;54.20
57892;DHT22;43708;48.828;9.166;2023-03-01T09:30:38;20.20;54.20
57892;DHT22;43708;48.828;9.166;2023-03-01T09:33:04;20.20;54.20
57892;DHT22;43708;48.828;9.166;2023-03-01T09:35:30;20.20;54.20
57892;DHT22;43708;48.828;9.166;2023-03-01T09:37:55;20.20;54.20
57892;DHT22;43708;48.828;9.166;2023-03-01T09:40:23;20.20;54.30
57892;DHT22;43708;48.828;9.166;2023-03-01T09:43:01;20.20;54.30
57892;DHT22;43708;48.828;9.166;2023-03-01T09:45:33;20.10;54.30
57892;DHT22;43708;48.828;9.166;2023-03-01T09:48:00;20.10;54.40
57892;DHT22;43708;48.828;9.166;2023-03-01T09:50:31;20.10;54.40
57892;DHT22;43708;48.828;9.166;2023-03-01T09:53:07;20.10;54.40
57892;DHT22;43708;48.828;9.166;2023-03-01T09:55:43;20.10;54.50
57892;DHT22;43708;48.828;9.166;2023-03-01T09:58:34;20.10;54.50
57892;DHT22;43708;48.828;9.166;2023-03-01T10:09:45;20.10;54.40
57892;DHT22;43708;48.828;9.166;2023-03-01T10:12:17;20.10;54.40
57892;DHT22;43708;48.828;9.166;2023-03-01T10:15:02;20.20;54.40
57892;DHT22;43708;48.828;9.166;2023-03-01T10:20:26;20.20;54.40
57892;DHT22;43708;48.828;9.166;2023-03-01T10:22:52;20.30;54.50
57892;DHT22;43708;48.828;9.166;2023-03-01T10:34:11;20.40;54.50
57892;DHT22;43708;48.828;9.166;2023-03-01T10:36:38;20.40;54.50
57892;DHT22;43708;48.828;9.166;2023-03-01T10:39:12;20.50;54.50
57892;DHT22;43708;48.828;9.166;2023-03-01T10:41:54;20.40;54.40
57892;DHT22;43708;48.828;9.166;2023-03-01T10:44:36;20.50;54.50
57892;DHT22;43708;48.828;9.166;2023-03-01T10:47:02;20.50;54.50
57892;DHT22;43708;48.828;9.166;2023-03-01T10:49:27;20.50;54.40
57892;DHT22;43708;48.828;9.166;2023-03-01T10:51:54;20.60;54.50
57892;DHT22;43708;48.828;9.166;2023-03-01T10:54:30;20.60;54.40
57892;DHT22;43708;48.828;9.166;2023-03-01T10:56:59;20.60;54.50
57892;DHT22;43708;48.828;9.166;2023-03-01T11:02:30;20.70;54.50
57892;DHT22;43708;48.828;9.166;2023-03-01T11:10:25;20.80;54.40
57892;DHT22;43708;48.828;9.166;2023-03-01T11:12:52;20.80;54.40
57892;DHT22;43708;48.828;9.166;2023-03-01T11:15:25;20.80;54.40
57892;DHT22;43708;48.828;9.166;2023-03-01T11:17:51;20.80;54.40
57892;DHT22;43708;48.828;9.166;2023-03-01T11:20:35;20.80;54.40
57892;DHT22;43708;48.828;9.166;2023-03-01T11:23:05;20.80;54.40
57892;DHT22;43708;48.828;9.166;2023-03-01T11:25:36;20.80;54.40
57892;DHT22;43708;48.828;9.166;2023-03-01T11:28:04;20.80;54.40
57892;DHT22;43708;48.828;9.166;2023-03-01T11:36:12;20.90;54.50
57892;DHT22;43708;48.828;9.166;2023-03-01T11:38:41;20.90;54.50
57892;DHT22;43708;48.828;9.166;2023-03-01T11:41:14;20.90;54.50
57892;DHT22;43708;48.828;9.166;2023-03-01T11:44:16;20.90;54.50
57892;DHT22;43708;48.828;9.166;2023-03-01T11:49:47;20.90;54.60
57892;DHT22;43708;48.828;9.166;2023-03-01T11:52:41;21.00;54.60
57892;DHT22;43708;48.828;9.166;2023-03-01T11:58:06;21.00;54.60
57892;DHT22;43708;48.828;9.166;2023-03-01T12:03:30;21.10;54.60
57892;DHT22;43708;48.828;9.166;2023-03-01T12:06:10;21.10;54.60
57892;DHT22;43708;48.828;9.166;2023-03-01T12:11:30;21.20;54.70
57892;DHT22;43708;48.828;9.166;2023-03-01T12:14:19;21.20;54.60
57892;DHT22;43708;48.828;9.166;2023-03-01T12:25:07;21.20;54.60
57892;DHT22;43708;48.828;9.166;2023-03-01T12:33:43;21.20;54.50
57892;DHT22;43708;48.828;9.166;2023-03-01T12:39:17;21.30;54.50
57892;DHT22;43708;48.828;9.166;2023-03-01T12:45:31;21.30;54.50
57892;DHT22;43708;48.828;9.166;2023-03-01T12:48:20;21.30;54.50
57892;DHT22;43708;48.828;9.166;2023-03-01T12:50:54;21.40;54.50
57892;DHT22;43708;48.828;9.166;2023-03-01T12:53:28;21.40;54.50
57892;DHT22;43708;48.828;9.166;2023-03-01T12:55:59;21.40;54.40
57892;DHT22;43708;48.828;9.166;2023-03-01T13:06:29;21.40;54.40
57892;DHT22;43708;48.828;9.166;2023-03-01T13:11:29;21.40;54.40
57892;DHT22;43708;48.828;9.166;2023-03-01T13:16:49;21.50;54.40
57892;DHT22;43708;48.828;9.166;2023-03-01T13:21:43;21.50;54.50
57892;DHT22;43708;48.828;9.166;2023-03-01T13:24:37;21.50;54.40
57892;DHT22;43708;48.828;9.166;2023-03-01T13:29:53;21.50;54.40
57892;DHT22;43708;48.828;9.166;2023-03-01T13:32:22;21.50;54.40
57892;DHT22;43708;48.828;9.166;2023-03-01T13:35:02;21.50;54.40
57892;DHT22;43708;48.828;9.166;2023-03-01T13:37:34;21.50;54.50
57892;DHT22;43708;48.828;9.166;2023-03-01T13:40:05;21.40;54.40
57892;DHT22;43708;48.828;9.166;2023-03-01T13:42:55;21.40;54.50
57892;DHT22;43708;48.828;9.166;2023-03-01T13:47:52;21.30;54.50
57892;DHT22;43708;48.828;9.166;2023-03-01T13:50:23;21.30;54.50
57892;DHT22;43708;48.828;9.166;2023-03-01T13:55:28;21.30;54.60
57892;DHT22;43708;48.828;9.166;2023-03-01T13:57:57;21.30;54.70
57892;DHT22;43708;48.828;9.166;2023-03-01T14:00:38;21.30;54.70
57892;DHT22;43708;48.828;9.166;2023-03-01T14:03:12;21.30;54.70
57892;DHT22;43708;48.828;9.166;2023-03-01T14:05:39;21.30;54.70
57892;DHT22;43708;48.828;9.166;2023-03-01T14:08:21;21.20;54.70
57892;DHT22;43708;48.828;9.166;2023-03-01T14:13:54;21.20;54.90
57892;DHT22;43708;48.828;9.166;2023-03-01T14:19:05;21.10;55.00
57892;DHT22;43708;48.828;9.166;2023-03-01T14:21:33;21.20;54.90
57892;DHT22;43708;48.828;9.166;2023-03-01T14:24:00;21.10;54.90
57892;DHT22;43708;48.828;9.166;2023-03-01T14:26:26;21.20;55.00
57892;DHT22;43708;48.828;9.166;2023-03-01T14:28:52;21.10;55.00
57892;DHT22;43708;48.828;9.166;2023-03-01T14:33:59;21.10;55.00
57892;DHT22;43708;48.828;9.166;2023-03-01T14:36:29;21.10;55.10
57892;DHT22;43708;48.828;9.166;2023-03-01T14:38:55;21.10;55.10
57892;DHT22;43708;48.828;9.166;2023-03-01T14:41:26;21.10;55.10
57892;DHT22;43708;48.828;9.166;2023-03-01T14:44:06;21.00;55.10
57892;DHT22;43708;48.828;9.166;2023-03-01T14:46:35;21.10;55.10
57892;DHT22;43708;48.828;9.166;2023-03-01T14:49:11;21.10;55.10
57892;DHT22;43708;48.828;9.166;2023-03-01T14:51:50;21.10;55.20
57892;DHT22;43708;48.828;9.166;2023-03-01T14:56:51;21.00;55.10
57892;DHT22;43708;48.828;9.166;2023-03-01T14:59:21;21.10;55.20
57892;DHT22;43708;48.828;9.166;2023-03-01T15:01:48;21.10;55.20
57892;DHT22;43708;48.828;9.166;2023-03-01T15:04:14;21.10;55.20
57892;DHT22;43708;48.828;9.166;2023-03-01T15:06:40;21.10;55.20
57892;DHT22;43708;48.828;9.166;2023-03-01T15:09:11;21.10;55.20
57892;DHT22;43708;48.828;9.166;2023-03-01T15:11:37;21.10;55.30
57892;DHT22;43708;48.828;9.166;2023-03-01T15:14:36;21.10;55.30
57892;DHT22;43708;48.828;9.166;2023-03-01T15:17:13;21.10;55.30
57892;DHT22;43708;48.828;9.166;2023-03-01T15:19:40;21.10;55.40
57892;DHT22;43708;48.828;9.166;2023-03-01T15:22:17;21.10;55.40
57892;DHT22;43708;48.828;9.166;2023-03-01T15:24:48;21.00;55.30
57892;DHT22;43708;48.828;9.166;2023-03-01T15:27:20;21.10;55.40
57892;DHT22;43708;48.828;9.166;2023-03-01T15:29:52;21.10;55.40
57892;DHT22;43708;48.828;9.166;2023-03-01T15:34:53;21.00;55.30
57892;DHT22;43708;48.828;9.166;2023-03-01T15:40:28;20.90;55.20
57892;DHT22;43708;48.828;9.166;2023-03-01T15:43:04;20.90;55.30
57892;DHT22;43708;48.828;9.166;2023-03-01T15:45:32;20.80;55.30
57892;DHT22;43708;48.828;9.166;2023-03-01T15:48:15;20.80;55.40
57892;DHT22;43708;48.828;9.166;2023-03-01T15:50:43;20.80;55.50
57892;DHT22;43708;48.828;9.166;2023-03-01T15:53:13;20.80;55.60
57892;DHT22;43708;48.828;9.166;2023-03-01T15:55:40;20.70;55.60
57892;DHT22;43708;48.828;9.166;2023-03-01T15:58:10;20.70;55.70
57892;DHT22;43708;48.828;9.166;2023-03-01T16:00:37;20.70;55.70
57892;DHT22;43708;48.828;9.166;2023-03-01T16:03:05;20.60;55.70
57892;DHT22;43708;48.828;9.166;2023-03-01T16:05:33;20.60;55.80
57892;DHT22;43708;48.828;9.166;2023-03-01T16:08:00;20.60;55.80
57892;DHT22;43708;48.828;9.166;2023-03-01T16:10:26;20.60;55.90
57892;DHT22;43708;48.828;9.166;2023-03-01T16:12:53;20.60;55.90
57892;DHT22;43708;48.828;9.166;2023-03-01T16:17:53;20.50;55.90
57892;DHT22;43708;48.828;9.166;2023-03-01T16:20:18;20.50;55.90
57892;DHT22;43708;48.828;9.166;2023-03-01T16:22:45;20.50;55.90
57892;DHT22;43708;48.828;9.166;2023-03-01T16:25:13;20.50;55.90
57892;DHT22;43708;48.828;9.166;2023-03-01T16:27:42;20.40;55.80
57892;DHT22;43708;48.828;9.166;2023-03-01T16:30:09;20.40;55.80
57892;DHT22;43708;48.828;9.166;2023-03-01T16:32:39;20.40;55.90
57892;DHT22;43708;48.828;9.166;2023-03-01T16:35:06;20.40;55.90
57892;DHT22;43708;48.828;9.166;2023-03-01T16:37:32;20.40;55.90
57892;DHT22;43708;48.828;9.166;2023-03-01T16:39:58;20.30;56.00
57892;DHT22;43708;48.828;9.166;2023-03-01T16:42:24;20.30;55.90
57892;DHT22;43708;48.828;9.166;2023-03-01T16:44:55;20.20;55.90
57892;DHT22;43708;48.828;9.166;2023-03-01T16:47:21;20.20;56.00
57892;DHT22;43708;48.828;9.166;2023-03-01T16:49:46;20.20;56.00
57892;DHT22;43708;48.828;9.166;2023-03-01T16:52:12;20.10;56.00
57892;DHT22;43708;48.828;9.166;2023-03-01T16:54:38;20.10;56.00
57892;DHT22;43708;48.828;9.166;2023-03-01T16:57:04;20.10;56.00
57892;DHT22;43708;48.828;9.166;2023-03-01T16:59:30;20.10;56.00
57892;DHT22;43708;48.828;9.166;2023-03-01T17:01:55;20.10;56.10
57892;DHT22;43708;48.828;9.166;2023-03-01T17:04:21;20.10;56.10
57892;DHT22;43708;48.828;9.166;2023-03-01T17:06:46;20.10;56.00
57892;DHT22;43708;48.828;9.166;2023-03-01T17:09:14;20.10;56.00
57892;DHT22;43708;48.828;9.166;2023-03-01T17:11:39;20.10;56.00
57892;DHT22;43708;48.828;9.166;2023-03-01T17:14:05;20.10;56.00
57892;DHT22;43708;48.828;9.166;2023-03-01T17:16:30;20.10;56.00
57892;DHT22;43708;48.828;9.166;2023-03-01T17:18:56;20.10;55.90
57892;DHT22;43708;48.828;9.166;2023-03-01T17:21:22;20.20;55.90
57892;DHT22;43708;48.828;9.166;2023-03-01T17:23:48;20.20;55.90
57892;DHT22;43708;48.828;9.166;2023-03-01T17:26:15;20.20;55.90
57892;DHT22;43708;48.828;9.166;2023-03-01T17:28:40;20.30;56.00
57892;DHT22;43708;48.828;9.166;2023-03-01T17:31:08;20.30;56.10
57892;DHT22;43708;48.828;9.166;2023-03-01T17:33:34;20.30;56.00
57892;DHT22;43708;48.828;9.166;2023-03-01T17:36:00;20.40;55.90
57892;DHT22;43708;48.828;9.166;2023-03-01T17:38:26;20.30;55.80
57892;DHT22;43708;48.828;9.166;2023-03-01T17:40:52;20.30;55.80
57892;DHT22;43708;48.828;9.166;2023-03-01T17:43:18;20.30;55.70
57892;DHT22;43708;48.828;9.166;2023-03-01T17:45:44;20.20;55.50
57892;DHT22;43708;48.828;9.166;2023-03-01T17:48:13;20.20;55.40